Time;durP1;ratioP1;P1;durP2;ratioP2;P2;SDS_P1;SDS_P2;PMS_P1;PMS_P2;Temp;Humidity;BMP_temperature;BMP_pressure;BME280_temperature;BME280_humidity;BME280_pressure;Samples;Min_cycle;Max_cycle;Signal;HPM_P1;HPM_P2
2022/11/10 00:01:12;;;;;;;;;;;9.60;99.90;;;;;;5052437;28;20010;-82
2022/11/10 00:03:58;;;;;;;;;;;9.50;99.90;;;;;;5050947;28;20564;-82
2022/11/10 00:06:44;;;;;;;;;;;9.50;99.90;;;;;;5054225;28;19932;-82
2022/11/10 00:09:29;;;;;;;;;;;9.50;99.90;;;;;;5046318;28;19980;-82
2022/11/10 00:12:15;;;;;;;;;;;9.50;99.90;;;;;;5053753;28;20328;-82
2022/11/10 00:18:05;;;;;;;;;;;9.50;99.90;;;;;;5050386;28;19932;-82
2022/11/10 00:20:50;;;;;;;;;;;9.40;99.90;;;;;;5043388;28;19935;-81
2022/11/10 00:23:39;;;;;;;;;;;9.40;99.90;;;;;;5045059;28;19932;-81
2022/11/10 00:26:24;;;;;;;;;;;9.40;99.90;;;;;;5041161;28;19932;-82
2022/11/10 00:29:10;;;;;;;;;;;9.40;99.90;;;;;;5051021;28;19943;-81
2022/11/10 00:31:57;;;;;;;;;;;9.40;99.90;;;;;;5048656;28;20337;-82
2022/11/10 00:34:45;;;;;;;;;;;9.40;99.90;;;;;;5042220;28;19936;-83
2022/11/10 00:37:30;;;;;;;;;;;9.40;99.90;;;;;;5042267;28;19944;-83
2022/11/10 00:40:16;;;;;;;;;;;9.40;99.90;;;;;;5047037;28;20018;-82
2022/11/10 00:43:02;;;;;;;;;;;9.40;99.90;;;;;;5051763;28;20007;-82
2022/11/10 00:45:47;;;;;;;;;;;9.40;99.90;;;;;;5055800;28;19936;-82
2022/11/10 00:48:34;;;;;;;;;;;9.40;99.90;;;;;;5055018;28;20419;-83
2022/11/10 00:51:24;;;;;;;;;;;9.30;99.90;;;;;;5052246;28;20085;-83
2022/11/10 00:54:10;;;;;;;;;;;9.30;99.90;;;;;;5052885;28;19939;-82
2022/11/10 00:56:55;;;;;;;;;;;9.70;99.90;;;;;;5048185;28;20480;-83
2022/11/10 00:59:41;;;;;;;;;;;9.40;99.90;;;;;;5055251;28;19955;-82
2022/11/10 01:02:26;;;;;;;;;;;9.40;99.90;;;;;;5042349;28;20039;-79
2022/11/10 01:05:11;;;;;;;;;;;9.40;99.90;;;;;;5045515;28;20387;-80
2022/11/10 01:07:58;;;;;;;;;;;9.30;99.90;;;;;;5050986;28;20025;-83
2022/11/10 01:10:43;;;;;;;;;;;9.30;99.90;;;;;;5051101;28;19935;-82
2022/11/10 01:13:29;;;;;;;;;;;9.30;99.90;;;;;;5049091;28;19936;-82
2022/11/10 01:16:15;;;;;;;;;;;9.30;99.90;;;;;;5044917;28;20006;-83
2022/11/10 01:19:02;;;;;;;;;;;9.30;99.90;;;;;;5058972;28;20433;-82
2022/11/10 01:21:49;;;;;;;;;;;9.40;99.90;;;;;;5050243;28;19963;-82
2022/11/10 01:24:36;;;;;;;;;;;9.40;99.90;;;;;;5059017;28;19936;-81
2022/11/10 01:27:21;;;;;;;;;;;9.40;99.90;;;;;;5052087;28;20476;-82
2022/11/10 01:30:07;;;;;;;;;;;9.40;99.90;;;;;;5044364;28;20008;-82
2022/11/10 01:32:54;;;;;;;;;;;9.40;99.90;;;;;;5056852;28;19932;-81
2022/11/10 01:35:40;;;;;;;;;;;9.40;99.90;;;;;;5054255;28;20190;-81
2022/11/10 01:38:27;;;;;;;;;;;9.40;99.90;;;;;;5056172;28;19940;-82
2022/11/10 01:41:14;;;;;;;;;;;9.40;99.90;;;;;;5047247;28;20037;-81
2022/11/10 01:44:13;;;;;;;;;;;9.40;99.90;;;;;;5058036;28;19935;-82
2022/11/10 01:46:59;;;;;;;;;;;9.40;99.90;;;;;;5055291;28;19944;-81
2022/11/10 01:49:44;;;;;;;;;;;9.40;99.90;;;;;;5049307;28;19947;-82
2022/11/10 01:52:32;;;;;;;;;;;9.40;99.90;;;;;;5054124;28;19963;-82
2022/11/10 01:55:17;;;;;;;;;;;9.30;99.90;;;;;;5051224;28;20411;-82
2022/11/10 01:58:05;;;;;;;;;;;9.40;99.90;;;;;;5056240;28;19964;-82
2022/11/10 02:00:51;;;;;;;;;;;9.30;99.90;;;;;;5050820;28;19955;-83
2022/11/10 02:03:41;;;;;;;;;;;9.30;99.90;;;;;;5058068;28;20074;-82
2022/11/10 02:06:27;;;;;;;;;;;9.30;99.90;;;;;;5051422;28;19948;-83
2022/11/10 02:09:13;;;;;;;;;;;9.30;99.90;;;;;;5050192;28;19952;-82
2022/11/10 02:11:59;;;;;;;;;;;9.30;99.90;;;;;;5056470;28;20022;-82
2022/11/10 02:14:46;;;;;;;;;;;9.30;99.90;;;;;;5055739;28;20057;-83
2022/11/10 02:17:31;;;;;;;;;;;9.30;99.90;;;;;;5044564;28;20003;-83
2022/11/10 02:20:18;;;;;;;;;;;9.30;99.90;;;;;;5046980;28;19990;-83
2022/11/10 02:23:12;;;;;;;;;;;9.30;99.90;;;;;;5059012;28;19936;-81
2022/11/10 02:25:58;;;;;;;;;;;9.30;99.90;;;;;;5054961;28;19940;-83
2022/11/10 02:28:44;;;;;;;;;;;9.30;99.90;;;;;;5046409;28;20016;-83
2022/11/10 02:31:29;;;;;;;;;;;9.30;99.90;;;;;;5056323;28;19932;-83
2022/11/10 02:34:15;;;;;;;;;;;9.20;99.90;;;;;;5045307;28;19952;-82
2022/11/10 02:37:00;;;;;;;;;;;9.20;99.90;;;;;;5053969;28;19935;-82
2022/11/10 02:39:48;;;;;;;;;;;9.20;99.90;;;;;;5045448;28;19935;-83
2022/11/10 02:42:34;;;;;;;;;;;9.20;99.90;;;;;;5052228;28;20051;-83
2022/11/10 02:45:19;;;;;;;;;;;9.10;99.90;;;;;;5054305;28;19931;-82
2022/11/10 02:48:05;;;;;;;;;;;9.10;99.90;;;;;;5054147;28;19932;-82
2022/11/10 02:50:50;;;;;;;;;;;9.10;99.90;;;;;;5054747;28;19936;-82
2022/11/10 02:53:35;;;;;;;;;;;9.20;99.90;;;;;;5049546;28;19931;-81
2022/11/10 02:56:23;;;;;;;;;;;9.20;99.90;;;;;;5055278;28;20030;-82
2022/11/10 02:59:08;;;;;;;;;;;9.20;99.90;;;;;;5050873;28;20048;-84
2022/11/10 03:01:54;;;;;;;;;;;9.20;99.90;;;;;;5051608;28;19939;-83
2022/11/10 03:04:39;;;;;;;;;;;9.20;99.90;;;;;;5052814;28;19936;-83
2022/11/10 03:07:24;;;;;;;;;;;9.20;99.90;;;;;;5050922;28;19932;-83
2022/11/10 03:10:10;;;;;;;;;;;9.20;99.90;;;;;;5046586;28;20367;-82
2022/11/10 03:13:01;;;;;;;;;;;9.20;99.90;;;;;;5035277;28;19947;-83
2022/11/10 03:15:47;;;;;;;;;;;9.20;99.90;;;;;;5051773;28;20295;-82
2022/11/10 03:18:32;;;;;;;;;;;9.20;99.90;;;;;;5048505;28;19943;-83
2022/11/10 03:21:19;;;;;;;;;;;9.30;99.90;;;;;;5051646;28;19956;-83
2022/11/10 03:24:04;;;;;;;;;;;9.30;99.90;;;;;;5057050;28;19935;-82
2022/11/10 03:26:51;;;;;;;;;;;9.30;99.90;;;;;;5053389;28;19936;-82
2022/11/10 03:29:37;;;;;;;;;;;9.40;99.90;;;;;;5053282;28;19954;-81
2022/11/10 03:32:22;;;;;;;;;;;9.40;99.90;;;;;;5051845;28;19936;-81
2022/11/10 03:35:08;;;;;;;;;;;9.40;99.90;;;;;;5047186;28;20025;-81
2022/11/10 03:37:55;;;;;;;;;;;9.40;99.90;;;;;;5053849;28;20017;-81
2022/11/10 03:40:41;;;;;;;;;;;9.40;99.90;;;;;;5050805;28;19951;-81
2022/11/10 03:43:26;;;;;;;;;;;9.40;99.90;;;;;;5048184;28;20445;-82
2022/11/10 03:46:13;;;;;;;;;;;9.40;99.90;;;;;;5043373;28;19936;-82
2022/11/10 03:48:59;;;;;;;;;;;9.40;99.90;;;;;;5051638;28;20592;-82
2022/11/10 03:51:44;;;;;;;;;;;9.30;99.90;;;;;;5051119;28;20054;-81
2022/11/10 03:54:29;;;;;;;;;;;9.30;99.90;;;;;;5053750;28;20645;-81
2022/11/10 03:57:15;;;;;;;;;;;9.30;99.90;;;;;;5052611;28;20300;-81
2022/11/10 04:00:00;;;;;;;;;;;9.20;99.90;;;;;;5053674;28;20408;-82
2022/11/10 04:02:47;;;;;;;;;;;9.20;99.90;;;;;;5045397;28;20016;-82
2022/11/10 04:17:50;;;;;;;;;;;9.10;99.90;;;;;;5052972;28;20033;-82
2022/11/10 04:20:35;;;;;;;;;;;9.10;99.90;;;;;;5060626;28;19955;-83
2022/11/10 04:23:28;;;;;;;;;;;9.00;99.90;;;;;;5056940;28;19936;-83
2022/11/10 04:26:30;;;;;;;;;;;9.00;99.90;;;;;;5055161;28;19947;-82
2022/11/10 04:29:17;;;;;;;;;;;9.00;99.90;;;;;;5048060;28;19948;-82
2022/11/10 04:32:02;;;;;;;;;;;9.00;99.90;;;;;;5047465;28;19947;-82
2022/11/10 04:34:49;;;;;;;;;;;8.90;99.90;;;;;;5052386;28;20000;-83
2022/11/10 04:37:34;;;;;;;;;;;8.90;99.90;;;;;;5052955;28;20399;-81
2022/11/10 04:40:20;;;;;;;;;;;8.90;99.90;;;;;;5044091;28;20113;-80
2022/11/10 04:43:05;;;;;;;;;;;8.90;99.90;;;;;;5051383;28;19945;-77
2022/11/10 04:45:51;;;;;;;;;;;8.80;99.90;;;;;;5051748;28;19939;-79
2022/11/10 04:48:36;;;;;;;;;;;8.80;99.90;;;;;;5050357;28;19935;-77
2022/11/10 04:51:24;;;;;;;;;;;8.80;99.90;;;;;;5047085;28;19940;-79
2022/11/10 04:54:10;;;;;;;;;;;8.70;99.90;;;;;;5050109;28;20027;-80
2022/11/10 04:56:56;;;;;;;;;;;8.70;99.90;;;;;;5055978;28;19935;-81
2022/11/10 04:59:42;;;;;;;;;;;8.70;99.90;;;;;;5046574;28;19939;-78
2022/11/10 05:02:27;;;;;;;;;;;8.70;99.90;;;;;;5045494;28;20359;-75
2022/11/10 05:05:13;;;;;;;;;;;8.70;99.90;;;;;;5043342;28;20013;-75
2022/11/10 05:08:00;;;;;;;;;;;8.60;99.90;;;;;;5049398;28;19936;-74
2022/11/10 05:10:45;;;;;;;;;;;8.60;99.90;;;;;;5047904;28;20356;-75
2022/11/10 05:13:30;;;;;;;;;;;8.60;99.90;;;;;;5047899;28;19935;-75
2022/11/10 05:16:16;;;;;;;;;;;8.60;99.90;;;;;;5040646;28;20319;-79
2022/11/10 05:19:01;;;;;;;;;;;8.60;99.90;;;;;;5053823;28;20010;-79
2022/11/10 05:21:47;;;;;;;;;;;8.70;99.90;;;;;;5056826;28;20595;-80
2022/11/10 05:24:34;;;;;;;;;;;8.80;99.90;;;;;;5060490;28;19986;-80
2022/11/10 05:27:19;;;;;;;;;;;8.90;99.90;;;;;;5058440;28;20002;-80
2022/11/10 05:30:05;;;;;;;;;;;8.90;99.90;;;;;;5057678;28;20350;-79
2022/11/10 05:32:51;;;;;;;;;;;9.00;99.90;;;;;;5057483;28;20081;-80
2022/11/10 05:35:36;;;;;;;;;;;9.10;99.90;;;;;;5071136;28;19923;-79
2022/11/10 05:38:22;;;;;;;;;;;9.20;99.90;;;;;;5078179;28;19978;-80
2022/11/10 05:41:15;;;;;;;;;;;9.20;99.90;;;;;;5058290;28;20016;-79
2022/11/10 05:44:01;;;;;;;;;;;9.20;99.90;;;;;;5054418;28;20008;-77
2022/11/10 05:46:47;;;;;;;;;;;9.10;99.90;;;;;;5049396;28;19936;-77
2022/11/10 05:49:32;;;;;;;;;;;9.10;99.90;;;;;;5050811;28;19984;-77
2022/11/10 05:52:19;;;;;;;;;;;9.10;99.90;;;;;;5052596;28;19951;-77
2022/11/10 05:55:04;;;;;;;;;;;9.00;99.90;;;;;;5053156;28;19939;-77
2022/11/10 05:57:52;;;;;;;;;;;9.00;99.90;;;;;;5051710;28;19982;-79
2022/11/10 06:00:37;;;;;;;;;;;8.90;99.90;;;;;;5053776;28;20248;-77
2022/11/10 06:03:23;;;;;;;;;;;8.90;99.90;;;;;;5034049;28;19936;-78
2022/11/10 06:06:08;;;;;;;;;;;8.80;99.90;;;;;;5049833;28;20003;-78
2022/11/10 06:08:55;;;;;;;;;;;8.80;99.90;;;;;;5052629;28;19935;-78
2022/11/10 06:11:40;;;;;;;;;;;8.80;99.90;;;;;;5039011;28;20369;-79
2022/11/10 06:14:28;;;;;;;;;;;8.80;99.90;;;;;;5039543;28;20356;-78
2022/11/10 06:17:16;;;;;;;;;;;8.80;99.90;;;;;;5052125;28;19935;-79
2022/11/10 06:20:02;;;;;;;;;;;8.80;99.90;;;;;;5039690;28;19952;-79
2022/11/10 06:22:58;;;;;;;;;;;8.80;99.90;;;;;;5039754;28;20043;-79
2022/11/10 06:25:44;;;;;;;;;;;8.80;99.90;;;;;;5037720;28;20305;-79
2022/11/10 06:28:31;;;;;;;;;;;8.90;99.90;;;;;;5038999;28;19932;-79
2022/11/10 06:31:17;;;;;;;;;;;8.90;99.90;;;;;;5042578;28;20046;-80
2022/11/10 06:34:03;;;;;;;;;;;9.00;99.90;;;;;;5058728;28;19939;-80
2022/11/10 06:36:48;;;;;;;;;;;9.00;99.90;;;;;;5061378;28;19948;-80
2022/11/10 06:39:34;;;;;;;;;;;9.10;99.90;;;;;;5060017;28;19932;-80
2022/11/10 06:42:19;;;;;;;;;;;9.00;99.90;;;;;;5060617;28;19978;-80
2022/11/10 06:45:05;;;;;;;;;;;9.00;99.90;;;;;;5057388;28;20030;-79
2022/11/10 06:47:59;;;;;;;;;;;9.00;99.90;;;;;;5058677;28;19951;-78
2022/11/10 06:50:45;;;;;;;;;;;9.00;99.90;;;;;;5060576;28;19986;-79
2022/11/10 06:53:31;;;;;;;;;;;9.00;99.90;;;;;;5059635;28;19935;-79
2022/11/10 06:56:16;;;;;;;;;;;9.00;99.90;;;;;;5057873;28;19931;-80
2022/11/10 06:59:02;;;;;;;;;;;9.00;99.90;;;;;;5059385;28;19944;-80
2022/11/10 07:01:47;;;;;;;;;;;9.00;99.90;;;;;;5058835;28;19994;-80
2022/11/10 07:04:34;;;;;;;;;;;9.00;99.90;;;;;;5057706;28;20384;-79
2022/11/10 07:07:20;;;;;;;;;;;9.00;99.90;;;;;;5058357;28;20112;-79
2022/11/10 07:10:06;;;;;;;;;;;8.80;99.90;;;;;;5057825;28;19936;-79
2022/11/10 07:12:55;;;;;;;;;;;9.10;99.90;;;;;;5052020;28;19939;-79
2022/11/10 07:15:42;;;;;;;;;;;9.10;99.90;;;;;;5048713;28;20035;-79
2022/11/10 07:18:28;;;;;;;;;;;9.10;99.90;;;;;;5057089;28;19935;-79
2022/11/10 07:21:15;;;;;;;;;;;9.30;99.90;;;;;;5057609;28;19935;-79
2022/11/10 07:24:01;;;;;;;;;;;9.30;99.90;;;;;;5058872;28;19931;-80
2022/11/10 07:26:46;;;;;;;;;;;9.40;99.90;;;;;;5059211;28;19986;-79
2022/11/10 07:29:31;;;;;;;;;;;9.70;99.90;;;;;;5059740;28;19939;-80
2022/11/10 07:32:17;;;;;;;;;;;9.70;99.90;;;;;;5057695;28;20175;-79
2022/11/10 07:35:02;;;;;;;;;;;10.10;99.90;;;;;;5058939;28;19939;-80
2022/11/10 07:37:52;;;;;;;;;;;10.10;99.90;;;;;;5060647;28;19978;-79
2022/11/10 07:40:38;;;;;;;;;;;10.30;99.90;;;;;;5055969;28;19932;-79
2022/11/10 07:43:24;;;;;;;;;;;10.50;99.90;;;;;;5057820;28;19946;-80
2022/11/10 07:46:11;;;;;;;;;;;10.60;99.90;;;;;;5058464;28;20252;-80
2022/11/10 07:48:56;;;;;;;;;;;10.80;99.90;;;;;;5041718;28;19987;-79
2022/11/10 07:51:42;;;;;;;;;;;11.00;99.90;;;;;;5058447;28;20062;-80
2022/11/10 07:54:29;;;;;;;;;;;11.40;99.90;;;;;;5063174;28;19931;-80
2022/11/10 07:57:15;;;;;;;;;;;11.40;99.90;;;;;;5057723;28;20264;-80
2022/11/10 08:00:00;;;;;;;;;;;11.60;99.90;;;;;;5058271;28;19931;-79
2022/11/10 08:02:46;;;;;;;;;;;11.80;99.90;;;;;;5050056;28;19958;-79
2022/11/10 08:05:31;;;;;;;;;;;12.20;99.90;;;;;;5057342;28;19963;-78
2022/11/10 08:08:17;;;;;;;;;;;12.50;99.90;;;;;;5047834;28;19935;-80
2022/11/10 08:11:04;;;;;;;;;;;12.60;99.90;;;;;;5054828;28;20006;-78
2022/11/10 08:13:49;;;;;;;;;;;12.70;99.90;;;;;;5042849;28;19966;-78
2022/11/10 08:16:34;;;;;;;;;;;12.80;99.90;;;;;;5054460;28;19936;-78
2022/11/10 08:19:20;;;;;;;;;;;12.80;99.90;;;;;;5053054;28;19936;-78
2022/11/10 08:22:05;;;;;;;;;;;12.90;99.90;;;;;;5057839;28;19936;-79
2022/11/10 08:24:50;;;;;;;;;;;12.90;99.90;;;;;;5053499;28;19936;-79
2022/11/10 08:27:37;;;;;;;;;;;12.90;99.90;;;;;;5041929;28;20483;-79
2022/11/10 08:30:22;;;;;;;;;;;12.90;99.90;;;;;;5052233;28;19983;-79
2022/11/10 08:33:09;;;;;;;;;;;13.00;99.90;;;;;;5053410;28;19931;-79
2022/11/10 08:35:55;;;;;;;;;;;13.00;99.90;;;;;;5057435;28;20248;-79
2022/11/10 08:38:40;;;;;;;;;;;12.90;99.90;;;;;;5045096;28;20007;-79
2022/11/10 08:41:26;;;;;;;;;;;12.90;99.90;;;;;;5055294;28;19932;-80
2022/11/10 08:44:13;;;;;;;;;;;12.70;99.90;;;;;;5055912;28;20006;-79
2022/11/10 08:46:58;;;;;;;;;;;12.80;99.90;;;;;;5055489;28;20290;-79
2022/11/10 08:49:44;;;;;;;;;;;12.70;99.90;;;;;;5055701;28;19935;-79
2022/11/10 08:52:30;;;;;;;;;;;12.70;99.90;;;;;;5054985;28;19931;-79
2022/11/10 08:55:15;;;;;;;;;;;12.70;99.90;;;;;;5042985;28;19994;-77
2022/11/10 08:58:01;;;;;;;;;;;12.70;99.90;;;;;;5047939;28;20002;-78
2022/11/10 09:00:48;;;;;;;;;;;12.80;99.90;;;;;;5047985;28;19932;-79
2022/11/10 09:03:33;;;;;;;;;;;12.80;99.90;;;;;;5046237;28;19939;-78
2022/11/10 09:06:19;;;;;;;;;;;12.90;99.90;;;;;;5050109;28;20090;-78
2022/11/10 09:09:04;;;;;;;;;;;12.90;99.90;;;;;;5049484;28;20014;-78
2022/11/10 09:11:49;;;;;;;;;;;13.00;99.90;;;;;;5043280;28;20005;-78
2022/11/10 09:14:35;;;;;;;;;;;13.00;99.90;;;;;;5044774;28;19994;-78
2022/11/10 09:17:21;;;;;;;;;;;13.10;99.90;;;;;;5036458;28;20299;-78
2022/11/10 09:20:08;;;;;;;;;;;13.30;99.90;;;;;;5041378;28;19940;-78
2022/11/10 09:22:53;;;;;;;;;;;13.30;99.90;;;;;;5039663;28;19940;-78
2022/11/10 09:25:42;;;;;;;;;;;13.40;99.90;;;;;;5037757;28;20379;-79
2022/11/10 09:28:27;;;;;;;;;;;13.40;99.90;;;;;;5044391;28;20466;-78
2022/11/10 09:31:13;;;;;;;;;;;13.60;99.90;;;;;;5049552;28;19960;-79
2022/11/10 09:34:00;;;;;;;;;;;13.60;99.90;;;;;;5040605;28;19940;-77
2022/11/10 09:36:46;;;;;;;;;;;13.70;99.90;;;;;;5046748;28;20021;-78
2022/11/10 09:39:31;;;;;;;;;;;13.90;99.90;;;;;;5048484;28;19939;-78
2022/11/10 09:42:26;;;;;;;;;;;14.00;99.90;;;;;;5047466;28;19936;-79
2022/11/10 09:45:17;;;;;;;;;;;14.10;99.90;;;;;;5040012;28;19952;-78
2022/11/10 09:48:06;;;;;;;;;;;14.20;99.90;;;;;;5052927;28;20501;-78
2022/11/10 09:50:55;;;;;;;;;;;14.30;99.90;;;;;;5048713;28;19936;-78
2022/11/10 09:53:43;;;;;;;;;;;14.50;99.90;;;;;;5052278;28;20296;-78
2022/11/10 09:56:31;;;;;;;;;;;14.70;99.90;;;;;;5053803;28;20034;-78
2022/11/10 09:59:18;;;;;;;;;;;14.90;99.90;;;;;;5046406;28;19935;-78
2022/11/10 10:02:13;;;;;;;;;;;14.90;99.90;;;;;;5045754;28;19960;-78
2022/11/10 10:05:19;;;;;;;;;;;15.10;99.90;;;;;;5053249;28;19931;-78
2022/11/10 10:08:08;;;;;;;;;;;15.40;99.90;;;;;;5047064;28;20463;-78
2022/11/10 10:11:00;;;;;;;;;;;15.30;99.90;;;;;;5053858;28;19982;-79
2022/11/10 10:13:52;;;;;;;;;;;15.40;99.90;;;;;;5052516;28;19997;-79
2022/11/10 10:16:40;;;;;;;;;;;15.50;99.90;;;;;;5053366;28;19936;-80
2022/11/10 10:19:31;;;;;;;;;;;15.60;99.90;;;;;;5040715;28;20011;-79
2022/11/10 10:22:25;;;;;;;;;;;15.60;99.90;;;;;;5046117;28;19939;-78
2022/11/10 10:25:13;;;;;;;;;;;15.70;99.90;;;;;;5039083;28;19932;-79
2022/11/10 10:28:02;;;;;;;;;;;15.80;99.90;;;;;;5050238;28;19939;-79
2022/11/10 10:30:47;;;;;;;;;;;16.00;99.90;;;;;;5049916;28;19978;-79
2022/11/10 10:33:33;;;;;;;;;;;16.10;99.90;;;;;;5049292;28;20013;-79
2022/11/10 10:36:22;;;;;;;;;;;16.10;99.90;;;;;;5041051;28;20010;-78
2022/11/10 10:39:13;;;;;;;;;;;16.20;99.90;;;;;;5053159;28;19931;-80
2022/11/10 10:42:00;;;;;;;;;;;16.20;99.90;;;;;;5053555;28;19935;-79
2022/11/10 10:45:01;;;;;;;;;;;16.30;99.90;;;;;;5052184;28;20383;-77
2022/11/10 10:47:48;;;;;;;;;;;16.40;99.90;;;;;;5048943;28;19931;-77
2022/11/10 10:50:34;;;;;;;;;;;16.50;99.90;;;;;;5056638;28;19986;-79
2022/11/10 10:53:20;;;;;;;;;;;16.60;99.90;;;;;;5057256;28;19935;-79
2022/11/10 10:56:13;;;;;;;;;;;16.70;99.90;;;;;;5055728;28;20407;-79
2022/11/10 10:59:02;;;;;;;;;;;16.80;99.90;;;;;;5054900;28;20026;-79
2022/11/10 11:01:52;;;;;;;;;;;16.90;99.90;;;;;;5058251;28;19963;-79
2022/11/10 11:04:42;;;;;;;;;;;17.00;99.90;;;;;;5055066;28;20415;-79
2022/11/10 11:07:28;;;;;;;;;;;17.00;99.90;;;;;;5048935;28;20702;-79
2022/11/10 11:10:20;;;;;;;;;;;17.00;99.90;;;;;;5055270;28;20066;-79
2022/11/10 11:13:15;;;;;;;;;;;17.10;99.90;;;;;;5054713;28;19954;-79
2022/11/10 11:16:03;;;;;;;;;;;17.20;99.90;;;;;;5050816;28;19975;-81
2022/11/10 11:18:48;;;;;;;;;;;17.40;99.90;;;;;;5055037;28;20013;-79
2022/11/10 11:21:36;;;;;;;;;;;17.50;99.90;;;;;;5055067;28;19936;-80
2022/11/10 11:24:34;;;;;;;;;;;17.50;99.90;;;;;;5051903;28;19935;-79
2022/11/10 11:27:23;;;;;;;;;;;17.60;99.90;;;;;;5049952;28;19935;-80
2022/11/10 11:30:10;;;;;;;;;;;17.60;99.90;;;;;;5056320;28;20447;-79
2022/11/10 11:33:13;;;;;;;;;;;17.70;99.90;;;;;;5053519;28;20041;-78
2022/11/10 11:36:01;;;;;;;;;;;17.70;99.90;;;;;;5055085;28;19971;-78
2022/11/10 11:38:54;;;;;;;;;;;17.70;99.90;;;;;;5054972;28;19976;-78
2022/11/10 11:41:42;;;;;;;;;;;17.80;99.90;;;;;;5053223;28;19936;-78
2022/11/10 11:44:44;;;;;;;;;;;17.90;99.90;;;;;;5051017;28;19950;-77
2022/11/10 11:47:36;;;;;;;;;;;17.90;99.90;;;;;;5052174;28;20043;-78
2022/11/10 11:50:28;;;;;;;;;;;17.90;99.90;;;;;;5056829;28;20264;-78
2022/11/10 11:53:21;;;;;;;;;;;18.00;99.90;;;;;;5037207;28;19985;-76
2022/11/10 11:56:13;;;;;;;;;;;18.10;99.90;;;;;;5042967;28;19935;-77
2022/11/10 11:59:03;;;;;;;;;;;18.10;99.90;;;;;;5051909;28;20332;-76
2022/11/10 12:01:55;;;;;;;;;;;18.10;99.90;;;;;;5053660;28;19931;-78
2022/11/10 12:04:49;;;;;;;;;;;18.10;99.90;;;;;;5051063;28;20240;-78
2022/11/10 12:07:44;;;;;;;;;;;18.20;99.90;;;;;;5051106;28;20029;-77
2022/11/10 12:10:36;;;;;;;;;;;18.10;99.90;;;;;;5051774;28;20360;-77
2022/11/10 12:13:29;;;;;;;;;;;18.10;99.90;;;;;;5046928;28;19951;-77
2022/11/10 12:16:17;;;;;;;;;;;18.10;99.90;;;;;;5051893;28;20538;-77
2022/11/10 12:19:07;;;;;;;;;;;18.10;99.90;;;;;;5041129;28;20079;-77
2022/11/10 12:21:56;;;;;;;;;;;18.20;99.90;;;;;;5052191;28;19974;-77
2022/11/10 12:24:49;;;;;;;;;;;18.20;99.90;;;;;;5051443;28;19935;-77
2022/11/10 12:27:37;;;;;;;;;;;18.20;99.90;;;;;;5051544;28;20371;-77
2022/11/10 12:30:22;;;;;;;;;;;18.10;99.90;;;;;;5050534;28;19935;-77
2022/11/10 12:33:12;;;;;;;;;;;18.00;99.90;;;;;;5039190;28;19970;-78
2022/11/10 12:36:00;;;;;;;;;;;17.90;99.90;;;;;;5052655;28;19935;-78
2022/11/10 12:38:51;;;;;;;;;;;18.00;99.90;;;;;;5052605;28;19982;-77
2022/11/10 12:41:41;;;;;;;;;;;18.00;99.90;;;;;;5041610;28;19940;-77
2022/11/10 12:44:31;;;;;;;;;;;18.10;99.90;;;;;;5046080;28;19935;-78
2022/11/10 12:47:18;;;;;;;;;;;18.10;99.90;;;;;;5038835;28;20545;-77
2022/11/10 12:50:11;;;;;;;;;;;18.00;99.90;;;;;;5049816;28;19974;-79
2022/11/10 12:52:58;;;;;;;;;;;17.90;99.90;;;;;;5050969;28;19932;-78
2022/11/10 12:55:45;;;;;;;;;;;17.90;99.90;;;;;;5051403;28;20308;-78
2022/11/10 12:58:32;;;;;;;;;;;17.80;99.90;;;;;;5050871;28;19944;-78
2022/11/10 13:01:19;;;;;;;;;;;17.70;99.90;;;;;;5044064;28;19936;-79
2022/11/10 13:04:06;;;;;;;;;;;17.70;99.90;;;;;;5051060;28;19956;-78
2022/11/10 13:06:53;;;;;;;;;;;17.70;99.90;;;;;;5038091;28;20369;-78
2022/11/10 13:09:41;;;;;;;;;;;17.70;99.90;;;;;;5050419;28;19932;-78
2022/11/10 13:12:26;;;;;;;;;;;17.70;99.90;;;;;;5051002;28;20026;-78
2022/11/10 13:15:32;;;;;;;;;;;17.80;99.90;;;;;;5054684;28;19943;-79
2022/11/10 13:18:35;;;;;;;;;;;17.80;99.90;;;;;;5039028;28;20025;-78
2022/11/10 13:21:35;;;;;;;;;;;17.80;99.90;;;;;;5053338;28;19935;-77
2022/11/10 13:24:23;;;;;;;;;;;17.70;99.90;;;;;;5048671;28;19939;-77
2022/11/10 13:27:12;;;;;;;;;;;17.70;99.90;;;;;;5054357;28;19931;-77
2022/11/10 13:29:58;;;;;;;;;;;17.70;99.90;;;;;;5061350;28;19936;-77
2022/11/10 13:32:44;;;;;;;;;;;17.70;99.90;;;;;;5050416;28;19939;-77
2022/11/10 13:35:47;;;;;;;;;;;17.60;99.90;;;;;;5043676;28;19964;-77
2022/11/10 13:38:37;;;;;;;;;;;17.40;99.90;;;;;;5040242;28;19936;-77
2022/11/10 13:41:25;;;;;;;;;;;17.30;99.90;;;;;;5054333;28;20006;-77
2022/11/10 13:44:10;;;;;;;;;;;;;;;;;;5054464;28;20068;-77
2022/11/10 13:47:33;;;;;;;;;;;17.10;99.90;;;;;;5045677;28;19940;-77
2022/11/10 13:50:25;;;;;;;;;;;17.00;99.90;;;;;;5021328;28;19983;-77
2022/11/10 13:53:19;;;;;;;;;;;16.90;99.90;;;;;;5032033;28;19936;-77
2022/11/10 13:56:11;;;;;;;;;;;16.80;99.90;;;;;;5050823;28;19939;-77
2022/11/10 13:58:58;;;;;;;;;;;16.80;99.90;;;;;;5055525;28;19939;-77
2022/11/10 14:01:44;;;;;;;;;;;16.70;99.90;;;;;;5054842;28;20379;-78
2022/11/10 14:04:39;;;;;;;;;;;16.60;99.90;;;;;;5053602;28;20383;-78
2022/11/10 14:07:27;;;;;;;;;;;16.60;99.90;;;;;;5059789;28;20434;-78
2022/11/10 14:10:15;;;;;;;;;;;16.50;99.90;;;;;;5055429;28;19939;-78
2022/11/10 14:13:04;;;;;;;;;;;16.50;99.90;;;;;;5044006;28;19931;-78
2022/11/10 14:15:52;;;;;;;;;;;16.50;99.90;;;;;;5052384;28;20019;-77
2022/11/10 14:18:39;;;;;;;;;;;16.50;99.90;;;;;;5053556;28;19940;-78
2022/11/10 14:21:27;;;;;;;;;;;16.50;99.90;;;;;;5052200;28;19986;-77
2022/11/10 14:24:16;;;;;;;;;;;16.40;99.90;;;;;;5051190;28;20291;-78
2022/11/10 14:27:06;;;;;;;;;;;16.40;99.90;;;;;;5051229;28;19935;-78
2022/11/10 14:30:03;;;;;;;;;;;16.30;99.90;;;;;;5045122;28;20038;-78
2022/11/10 14:32:56;;;;;;;;;;;16.20;99.90;;;;;;5048653;28;19943;-78
2022/11/10 14:35:45;;;;;;;;;;;16.10;99.90;;;;;;5052123;28;19948;-77
2022/11/10 14:38:32;;;;;;;;;;;16.00;99.90;;;;;;5052183;28;20002;-78
2022/11/10 14:41:19;;;;;;;;;;;15.70;99.90;;;;;;5052534;28;20035;-78
2022/11/10 14:44:06;;;;;;;;;;;15.70;99.90;;;;;;5052094;28;19978;-79
2022/11/10 14:46:52;;;;;;;;;;;15.60;99.90;;;;;;5052889;28;19970;-77
2022/11/10 14:49:39;;;;;;;;;;;15.50;99.90;;;;;;5052681;28;20030;-78
2022/11/10 14:52:24;;;;;;;;;;;15.20;99.90;;;;;;5047408;28;20540;-78
2022/11/10 14:55:14;;;;;;;;;;;15.20;99.90;;;;;;5051002;28;19959;-78
2022/11/10 14:58:03;;;;;;;;;;;15.20;99.90;;;;;;5052023;28;19990;-77
2022/11/10 15:00:49;;;;;;;;;;;15.10;99.90;;;;;;5042842;28;19936;-78
2022/11/10 15:03:35;;;;;;;;;;;15.00;99.90;;;;;;5032964;28;19936;-78
2022/11/10 15:06:22;;;;;;;;;;;14.90;99.90;;;;;;5037874;28;19936;-77
2022/11/10 15:09:14;;;;;;;;;;;14.80;99.90;;;;;;5050657;28;19940;-78
2022/11/10 15:12:07;;;;;;;;;;;14.80;99.90;;;;;;5038940;28;20007;-78
2022/11/10 15:14:56;;;;;;;;;;;14.70;99.90;;;;;;5049922;28;20177;-79
2022/11/10 15:17:46;;;;;;;;;;;14.70;99.90;;;;;;5052119;28;19995;-79
2022/11/10 15:20:33;;;;;;;;;;;14.60;99.90;;;;;;5038688;28;20036;-78
2022/11/10 15:23:22;;;;;;;;;;;14.60;99.90;;;;;;5052392;28;19936;-77
2022/11/10 15:26:17;;;;;;;;;;;14.50;99.90;;;;;;5042946;28;20065;-78
2022/11/10 15:29:03;;;;;;;;;;;14.40;99.90;;;;;;5050541;28;19932;-77
2022/11/10 15:31:50;;;;;;;;;;;14.40;99.90;;;;;;5052712;28;19978;-77
2022/11/10 15:34:43;;;;;;;;;;;14.30;99.90;;;;;;5041463;28;19932;-78
2022/11/10 15:37:30;;;;;;;;;;;14.20;99.90;;;;;;5048739;28;20417;-78
2022/11/10 15:40:33;;;;;;;;;;;14.10;99.90;;;;;;5044783;28;19939;-77
2022/11/10 15:43:26;;;;;;;;;;;14.00;99.90;;;;;;5045193;28;20074;-78
2022/11/10 15:46:17;;;;;;;;;;;13.90;99.90;;;;;;5046049;28;20002;-77
2022/11/10 15:49:10;;;;;;;;;;;13.90;99.90;;;;;;5043927;28;19960;-77
2022/11/10 15:51:57;;;;;;;;;;;13.70;99.90;;;;;;5039822;28;19936;-77
2022/11/10 15:54:43;;;;;;;;;;;13.60;99.90;;;;;;5048981;28;19932;-78
2022/11/10 15:57:31;;;;;;;;;;;13.60;99.90;;;;;;5040506;28;19932;-78
2022/11/10 16:00:17;;;;;;;;;;;13.50;99.90;;;;;;5040153;28;20426;-78
2022/11/10 16:03:04;;;;;;;;;;;13.50;99.90;;;;;;5049188;28;19940;-78
2022/11/10 16:05:49;;;;;;;;;;;13.40;99.90;;;;;;5049705;28;20284;-78
2022/11/10 16:08:35;;;;;;;;;;;13.40;99.90;;;;;;5042037;28;20025;-78
2022/11/10 16:11:21;;;;;;;;;;;13.20;99.90;;;;;;5047337;28;20099;-78
2022/11/10 16:14:10;;;;;;;;;;;13.20;99.90;;;;;;5050073;28;20288;-79
2022/11/10 16:16:56;;;;;;;;;;;13.20;99.90;;;;;;5050250;28;19948;-78
2022/11/10 16:19:41;;;;;;;;;;;13.20;99.90;;;;;;5049939;28;20014;-77
2022/11/10 16:22:27;;;;;;;;;;;13.10;99.90;;;;;;5048585;28;19984;-78
2022/11/10 16:25:12;;;;;;;;;;;13.10;99.90;;;;;;5036492;28;19936;-78
2022/11/10 16:28:01;;;;;;;;;;;13.10;99.90;;;;;;5048136;28;19936;-78
2022/11/10 16:30:47;;;;;;;;;;;13.00;99.90;;;;;;5044876;28;20374;-78
2022/11/10 16:33:33;;;;;;;;;;;13.00;99.90;;;;;;5040576;28;19974;-77
2022/11/10 16:36:23;;;;;;;;;;;13.00;99.90;;;;;;5049180;28;20022;-79
2022/11/10 16:39:11;;;;;;;;;;;13.00;99.90;;;;;;5042523;28;20031;-77